Time;durP1;ratioP1;P1;durP2;ratioP2;P2;SDS_P1;SDS_P2;PMS_P1;PMS_P2;Temp;Humidity;BMP_temperature;BMP_pressure;BME280_temperature;BME280_humidity;BME280_pressure;Samples;Min_cycle;Max_cycle;Signal;HPM_P1;HPM_P2
2021/04/06 00:00:32;;;;;;;;;;;;;;;;;;5027053;28;936;-63
2021/04/06 00:02:58;;;;;;;;;;;;;;;;;;5027221;28;1977;-63
2021/04/06 00:05:24;;;;;;;;;;;;;;;;;;5027712;28;780;-63
2021/04/06 00:07:51;;;;;;;;;;;;;;;;;;5028452;28;831;-62
2021/04/06 00:10:17;;;;;;;;;;;;;;;;;;5027135;28;812;-63
2021/04/06 00:12:44;;;;;;;;;;;;;;;;;;5027401;28;851;-63
2021/04/06 00:15:10;;;;;;;;;;;;;;;;;;5027388;28;879;-63
2021/04/06 00:17:38;;;;;;;;;;;;;;;;;;5027374;28;808;-62
2021/04/06 00:20:05;;;;;;;;;;;;;;;;;;5027306;28;962;-63
2021/04/06 00:22:32;;;;;;;;;;;;;;;;;;5009610;28;1895;-64
2021/04/06 00:24:58;;;;;;;;;;;;;;;;;;5027055;28;828;-63
2021/04/06 00:27:28;;;;;;;;;;;;;;;;;;5027228;28;907;-63
2021/04/06 00:29:56;;;;;;;;;;;;;;;;;;5027566;28;926;-64
2021/04/06 00:32:24;;;;;;;;;;;;;;;;;;5027968;28;927;-62
2021/04/06 00:34:55;;;;;;;;;;;;;;;;;;5027795;28;850;-63
2021/04/06 00:37:20;;;;;;;;;;;;;;;;;;5027601;28;902;-62
2021/04/06 00:39:46;;;;;;;;;;;;;;;;;;5027578;28;863;-63
2021/04/06 00:42:13;;;;;;;;;;;;;;;;;;5014859;28;2595;-63
2021/04/06 00:44:43;;;;;;;;;;;;;;;;;;5006709;28;864;-61
2021/04/06 00:47:11;;;;;;;;;;;;;;;;;;5007382;28;864;-61
2021/04/06 00:49:37;;;;;;;;;;;;;;;;;;5007308;28;848;-62
2021/04/06 00:52:03;;;;;;;;;;;;;;;;;;5007016;28;895;-62
2021/04/06 00:54:28;;;;;;;;;;;;;;;;;;5021276;28;1140;-62
2021/04/06 00:57:00;;;;;;;;;;;;;;;;;;5029224;28;808;-63
2021/04/06 00:59:26;;;;;;;;;;;;;;;;;;5014814;28;2405;-62
2021/04/06 01:01:57;;;;;;;;;;;;;;;;;;5031023;28;812;-61
2021/04/06 01:04:24;;;;;;;;;;;;;;;;;;5030973;28;1906;-64
2021/04/06 01:06:53;;;;;;;;;;;;;;;;;;5031086;28;840;-63
2021/04/06 01:09:19;;;;;;;;;;;;;;;;;;5031330;28;875;-63
2021/04/06 01:11:45;;;;;;;;;;;;;;;;;;5030901;28;879;-62
2021/04/06 01:14:15;;;;;;;;;;;;;;;;;;5030881;28;910;-62
2021/04/06 01:16:40;;;;;;;;;;;;;;;;;;5030419;28;907;-63
2021/04/06 01:19:05;;;;;;;;;;;;;;;;;;5029949;28;855;-62
2021/04/06 01:21:31;;;;;;;;;;;;;;;;;;5030597;28;891;-62
2021/04/06 01:23:56;;;;;;;;;;;;;;;;;;5045344;28;1930;-62
2021/04/06 01:26:21;;;;;;;;;;;;;;;;;;5030953;28;890;-62
2021/04/06 01:28:47;;;;;;;;;;;;;;;;;;5030628;28;890;-62
2021/04/06 01:31:12;;;;;;;;;;;;;;;;;;5030331;28;835;-61
2021/04/06 01:33:38;;;;;;;;;;;;;;;;;;5030421;28;1203;-61
2021/04/06 01:36:07;;;;;;;;;;;;;;;;;;5030337;28;812;-61
2021/04/06 01:38:34;;;;;;;;;;;;;;;;;;5027220;28;1472;-63
2021/04/06 01:41:00;;;;;;;;;;;;;;;;;;5009514;28;860;-61
2021/04/06 01:43:30;;;;;;;;;;;;;;;;;;5018215;28;1980;-61
2021/04/06 01:45:57;;;;;;;;;;;;;;;;;;5010479;28;851;-62
2021/04/06 01:48:22;;;;;;;;;;;;;;;;;;5011145;28;816;-61
2021/04/06 01:50:49;;;;;;;;;;;;;;;;;;5010531;28;867;-62
2021/04/06 01:53:15;;;;;;;;;;;;;;;;;;5014578;28;1089;-61
2021/04/06 01:55:45;;;;;;;;;;;;;;;;;;5029758;28;883;-61
2021/04/06 01:58:12;;;;;;;;;;;;;;;;;;5029303;28;867;-63
2021/04/06 02:01:11;;;;;;;;;;;;;;;;;;5029246;28;889;-63
2021/04/06 02:04:05;;;;;;;;;;;;;;;;;;5026430;28;1914;-63
2021/04/06 02:06:32;;;;;;;;;;;;;;;;;;5028801;28;1079;-64
2021/04/06 02:08:58;;;;;;;;;;;;;;;;;;5028075;28;899;-64
2021/04/06 02:11:26;;;;;;;;;;;;;;;;;;5029647;28;891;-64
2021/04/06 02:13:51;;;;;;;;;;;;;;;;;;5020660;28;902;-62
2021/04/06 02:16:17;;;;;;;;;;;;;;;;;;5009743;28;843;-63
2021/04/06 02:18:43;;;;;;;;;;;;;;;;;;5009625;28;887;-63
2021/04/06 02:21:08;;;;;;;;;;;;;;;;;;5009497;28;863;-63
2021/04/06 02:23:42;;;;;;;;;;;;;;;;;;5009398;28;1893;-63
2021/04/06 02:26:07;;;;;;;;;;;;;;;;;;5009609;28;867;-63
2021/04/06 02:28:34;;;;;;;;;;;;;;;;;;5009425;28;875;-63
2021/04/06 02:31:01;;;;;;;;;;;;;;;;;;5008878;28;840;-63
2021/04/06 02:33:27;;;;;;;;;;;;;;;;;;5009557;28;891;-63
2021/04/06 02:35:54;;;;;;;;;;;;;;;;;;5010495;28;1188;-64
2021/04/06 02:38:20;;;;;;;;;;;;;;;;;;5009705;28;883;-62
2021/04/06 02:40:45;;;;;;;;;;;;;;;;;;4991002;28;951;-61
2021/04/06 02:43:10;;;;;;;;;;;;;;;;;;5008767;28;1965;-61
2021/04/06 02:45:36;;;;;;;;;;;;;;;;;;5008591;28;903;-62
2021/04/06 02:48:13;;;;;;;;;;;;;;;;;;5008479;28;858;-62
2021/04/06 02:50:42;;;;;;;;;;;;;;;;;;5008226;28;844;-61
2021/04/06 02:53:08;;;;;;;;;;;;;;;;;;5012556;28;1100;-62
2021/04/06 02:55:35;;;;;;;;;;;;;;;;;;5028587;28;895;-62
2021/04/06 02:58:00;;;;;;;;;;;;;;;;;;5028538;28;847;-61
2021/04/06 03:00:28;;;;;;;;;;;;;;;;;;5028712;28;816;-61
2021/04/06 03:02:58;;;;;;;;;;;;;;;;;;5028687;28;1910;-63
2021/04/06 03:05:33;;;;;;;;;;;;;;;;;;5029088;28;898;-63
2021/04/06 03:07:59;;;;;;;;;;;;;;;;;;5028363;28;919;-63
2021/04/06 03:10:25;;;;;;;;;;;;;;;;;;5028084;28;891;-63
2021/04/06 03:12:51;;;;;;;;;;;;;;;;;;5028844;28;808;-63
2021/04/06 03:15:20;;;;;;;;;;;;;;;;;;5028314;28;824;-63
2021/04/06 03:17:48;;;;;;;;;;;;;;;;;;5018500;28;1295;-63
2021/04/06 03:20:14;;;;;;;;;;;;;;;;;;5008604;28;839;-63
2021/04/06 03:22:39;;;;;;;;;;;;;;;;;;5008421;28;1988;-64
2021/04/06 03:25:05;;;;;;;;;;;;;;;;;;5007830;28;831;-63
2021/04/06 03:27:31;;;;;;;;;;;;;;;;;;5008286;28;860;-63
2021/04/06 03:29:57;;;;;;;;;;;;;;;;;;5008311;28;1267;-63
2021/04/06 03:32:23;;;;;;;;;;;;;;;;;;5008629;28;846;-63
2021/04/06 03:34:48;;;;;;;;;;;;;;;;;;5007986;28;1031;-64
2021/04/06 03:37:13;;;;;;;;;;;;;;;;;;5007751;28;816;-64
2021/04/06 03:39:39;;;;;;;;;;;;;;;;;;5007637;28;839;-63
2021/04/06 03:42:05;;;;;;;;;;;;;;;;;;5008164;28;966;-64
2021/04/06 03:44:31;;;;;;;;;;;;;;;;;;5007183;28;1961;-64
2021/04/06 03:47:00;;;;;;;;;;;;;;;;;;5007345;28;887;-63
2021/04/06 03:49:27;;;;;;;;;;;;;;;;;;5007435;28;875;-63
2021/04/06 03:51:54;;;;;;;;;;;;;;;;;;5008650;28;1076;-64
2021/04/06 03:54:34;;;;;;;;;;;;;;;;;;5020779;28;1084;-64
2021/04/06 03:57:00;;;;;;;;;;;;;;;;;;5027339;28;808;-64
2021/04/06 03:59:30;;;;;;;;;;;;;;;;;;5027309;28;905;-63
2021/04/06 04:01:56;;;;;;;;;;;;;;;;;;5027023;28;859;-64
2021/04/06 04:04:21;;;;;;;;;;;;;;;;;;5009819;28;1910;-64
2021/04/06 04:06:46;;;;;;;;;;;;;;;;;;5027330;28;804;-64
2021/04/06 04:09:12;;;;;;;;;;;;;;;;;;5027415;28;831;-63
2021/04/06 04:11:39;;;;;;;;;;;;;;;;;;5027592;28;851;-64
2021/04/06 04:14:04;;;;;;;;;;;;;;;;;;5023593;28;1087;-63
2021/04/06 04:16:30;;;;;;;;;;;;;;;;;;5027370;28;811;-63
2021/04/06 04:18:55;;;;;;;;;;;;;;;;;;5027821;28;824;-64
2021/04/06 04:21:20;;;;;;;;;;;;;;;;;;5028261;28;835;-64
2021/04/06 04:23:46;;;;;;;;;;;;;;;;;;5027032;28;1886;-64
2021/04/06 04:26:11;;;;;;;;;;;;;;;;;;5027352;28;906;-63
2021/04/06 04:28:37;;;;;;;;;;;;;;;;;;5027409;28;958;-62
2021/04/06 04:31:11;;;;;;;;;;;;;;;;;;5030123;28;823;-64
2021/04/06 04:33:37;;;;;;;;;;;;;;;;;;5016250;28;756;-63
2021/04/06 04:36:03;;;;;;;;;;;;;;;;;;5033685;28;828;-64
2021/04/06 04:38:28;;;;;;;;;;;;;;;;;;5033247;28;867;-64
2021/04/06 04:40:54;;;;;;;;;;;;;;;;;;5034328;28;1171;-64
2021/04/06 04:43:19;;;;;;;;;;;;;;;;;;5034216;28;1894;-63
2021/04/06 04:45:45;;;;;;;;;;;;;;;;;;5033422;28;872;-62
2021/04/06 04:48:11;;;;;;;;;;;;;;;;;;5034111;28;895;-64
2021/04/06 04:50:36;;;;;;;;;;;;;;;;;;5033523;28;1057;-64
2021/04/06 04:53:01;;;;;;;;;;;;;;;;;;5033368;28;1170;-63
2021/04/06 04:55:27;;;;;;;;;;;;;;;;;;5033542;28;839;-63
2021/04/06 04:57:53;;;;;;;;;;;;;;;;;;5035163;28;895;-63
2021/04/06 05:00:20;;;;;;;;;;;;;;;;;;5034571;28;827;-63
2021/04/06 05:02:45;;;;;;;;;;;;;;;;;;5033240;28;1901;-63
2021/04/06 05:05:13;;;;;;;;;;;;;;;;;;5033520;28;918;-63
2021/04/06 05:07:39;;;;;;;;;;;;;;;;;;5015142;28;881;-63
2021/04/06 05:10:05;;;;;;;;;;;;;;;;;;5033341;28;832;-61
2021/04/06 05:12:31;;;;;;;;;;;;;;;;;;5033135;28;867;-62
2021/04/06 05:14:57;;;;;;;;;;;;;;;;;;5033545;28;847;-62
2021/04/06 05:17:22;;;;;;;;;;;;;;;;;;5033952;28;807;-62
2021/04/06 05:19:48;;;;;;;;;;;;;;;;;;5033063;28;807;-63
2021/04/06 05:22:13;;;;;;;;;;;;;;;;;;5033100;28;845;-63
2021/04/06 05:24:38;;;;;;;;;;;;;;;;;;5033188;28;1890;-62
2021/04/06 05:27:04;;;;;;;;;;;;;;;;;;5032986;28;839;-62
2021/04/06 05:29:29;;;;;;;;;;;;;;;;;;5015603;28;1163;-62
2021/04/06 05:31:55;;;;;;;;;;;;;;;;;;5033545;28;864;-63
2021/04/06 05:34:20;;;;;;;;;;;;;;;;;;5034181;28;823;-61
2021/04/06 05:36:45;;;;;;;;;;;;;;;;;;5032917;28;803;-62
2021/04/06 05:39:11;;;;;;;;;;;;;;;;;;5033501;28;886;-62
2021/04/06 05:41:36;;;;;;;;;;;;;;;;;;5015211;28;951;-62
2021/04/06 05:44:04;;;;;;;;;;;;;;;;;;5029417;28;1985;-62
2021/04/06 05:46:30;;;;;;;;;;;;;;;;;;5029799;28;895;-62
2021/04/06 05:48:59;;;;;;;;;;;;;;;;;;5030646;28;808;-62
2021/04/06 05:51:25;;;;;;;;;;;;;;;;;;5029225;28;820;-64
2021/04/06 05:53:51;;;;;;;;;;;;;;;;;;5021152;28;1103;-62
2021/04/06 05:56:17;;;;;;;;;;;;;;;;;;5010293;28;848;-62
2021/04/06 05:58:42;;;;;;;;;;;;;;;;;;5025164;28;855;-62
2021/04/06 06:01:08;;;;;;;;;;;;;;;;;;5027919;28;917;-62
2021/04/06 06:03:33;;;;;;;;;;;;;;;;;;5029743;28;1898;-61
2021/04/06 06:05:58;;;;;;;;;;;;;;;;;;5031682;28;1084;-61
2021/04/06 06:08:25;;;;;;;;;;;;;;;;;;5034938;28;1770;-63
2021/04/06 06:10:59;;;;;;;;;;;;;;;;;;5045162;28;1679;-61
2021/04/06 06:13:25;;;;;;;;;;;;;;;;;;5029710;28;1226;-63
2021/04/06 06:16:07;;;;;;;;;;;;;;;;;;5030083;28;883;-61
2021/04/06 06:18:32;;;;;;;;;;;;;;;;;;5028451;28;815;-63
2021/04/06 06:20:58;;;;;;;;;;;;;;;;;;5011103;28;872;-63
2021/04/06 06:23:24;;;;;;;;;;;;;;;;;;5021579;28;1997;-64
2021/04/06 06:26:04;;;;;;;;;;;;;;;;;;5018106;28;823;-64
2021/04/06 06:28:29;;;;;;;;;;;;;;;;;;5028996;28;840;-64
2021/04/06 06:30:56;;;;;;;;;;;;;;;;;;5010062;28;812;-64
2021/04/06 06:33:27;;;;;;;;;;;;;;;;;;5012082;28;1496;-65
2021/04/06 06:35:52;;;;;;;;;;;;;;;;;;5011733;28;816;-64
2021/04/06 06:38:18;;;;;;;;;;;;;;;;;;5044737;28;1321;-74
2021/04/06 06:40:44;;;;;;;;;;;;;;;;;;5028944;28;827;-65
2021/04/06 06:43:13;;;;;;;;;;;;;;;;;;5028692;28;1993;-65
2021/04/06 06:45:39;;;;;;;;;;;;;;;;;;5028937;28;879;-65
2021/04/06 06:48:04;;;;;;;;;;;;;;;;;;5027999;28;1060;-64
2021/04/06 06:50:30;;;;;;;;;;;;;;;;;;5044310;28;1257;-65
2021/04/06 06:52:56;;;;;;;;;;;;;;;;;;5010429;28;1250;-64
2021/04/06 06:55:23;;;;;;;;;;;;;;;;;;5028748;28;820;-64
2021/04/06 06:57:50;;;;;;;;;;;;;;;;;;5029148;28;791;-66
2021/04/06 07:00:15;;;;;;;;;;;;;;;;;;5028481;28;1136;-66
2021/04/06 07:02:41;;;;;;;;;;;;;;;;;;5028121;28;1977;-64
2021/04/06 07:05:14;;;;;;;;;;;;;;;;;;5028364;28;1353;-64
2021/04/06 07:07:52;;;;;;;;;;;;;;;;;;5017054;28;1077;-66
2021/04/06 07:10:18;;;;;;;;;;;;;;;;;;5044451;28;899;-66
2021/04/06 07:12:49;;;;;;;;;;;;;;;;;;5028522;28;1167;-64
2021/04/06 07:15:15;;;;;;;;;;;;;;;;;;5028362;28;875;-66
2021/04/06 07:17:42;;;;;;;;;;;;;;;;;;5028068;28;850;-64
2021/04/06 07:20:08;;;;;;;;;;;;;;;;;;5028015;28;1055;-65
2021/04/06 07:22:34;;;;;;;;;;;;;;;;;;5027399;28;1886;-66
2021/04/06 07:24:59;;;;;;;;;;;;;;;;;;5028037;28;859;-64
2021/04/06 07:27:26;;;;;;;;;;;;;;;;;;5030755;28;1116;-64
2021/04/06 07:29:52;;;;;;;;;;;;;;;;;;5043083;28;1234;-65
2021/04/06 07:32:18;;;;;;;;;;;;;;;;;;5048033;28;851;-61
2021/04/06 07:34:43;;;;;;;;;;;;;;;;;;5047946;28;856;-65
2021/04/06 07:37:09;;;;;;;;;;;;;;;;;;5042372;28;1135;-64
2021/04/06 07:39:35;;;;;;;;;;;;;;;;;;5027606;28;1277;-64
2021/04/06 07:42:01;;;;;;;;;;;;;;;;;;5028049;28;903;-64
2021/04/06 07:44:26;;;;;;;;;;;;;;;;;;5027992;28;1899;-64
2021/04/06 07:46:52;;;;;;;;;;;;;;;;;;5028498;28;807;-64
2021/04/06 07:49:20;;;;;;;;;;;;;;;;;;5027756;28;989;-63
2021/04/06 07:51:46;;;;;;;;;;;;;;;;;;5027504;28;831;-62
2021/04/06 07:54:18;;;;;;;;;;;;;;;;;;5027973;28;1143;-62
2021/04/06 07:56:44;;;;;;;;;;;;;;;;;;5027468;28;840;-63
2021/04/06 07:59:10;;;;;;;;;;;;;;;;;;5027291;28;947;-62
2021/04/06 08:01:35;;;;;;;;;;;;;;;;;;5027477;28;962;-63
2021/04/06 08:04:06;;;;;;;;;;;;;;;;;;5027224;28;1902;-63
2021/04/06 08:06:46;;;;;;;;;;;;;;;;;;5025610;28;1015;-64
2021/04/06 08:09:35;;;;;;;;;;;;;;;;;;4994063;28;1280;-63
2021/04/06 08:12:06;;;;;;;;;;;;;;;;;;5018643;28;1261;-63
2021/04/06 08:14:34;;;;;;;;;;;;;;;;;;5027153;28;831;-62
2021/04/06 08:17:26;;;;;;;;;;;;;;;;;;5027560;28;820;-63
2021/04/06 08:19:55;;;;;;;;;;;;;;;;;;5012095;28;1420;-63
2021/04/06 08:22:25;;;;;;;;;;;;;;;;;;5028290;28;935;-62
2021/04/06 08:24:51;;;;;;;;;;;;;;;;;;5028586;28;1898;-63
2021/04/06 08:27:33;;;;;;;;;;;;;;;;;;5027683;28;808;-63
2021/04/06 08:30:26;;;;;;;;;;;;;;;;;;5027351;28;835;-62
2021/04/06 08:32:58;;;;;;;;;;;;;;;;;;5043514;28;962;-61
2021/04/06 08:35:42;;;;;;;;;;;;;;;;;;5028377;28;880;-62
2021/04/06 08:38:22;;;;;;;;;;;;;;;;;;5042391;28;1180;-63
2021/04/06 08:40:49;;;;;;;;;;;;;;;;;;4987426;28;815;-62
2021/04/06 08:43:18;;;;;;;;;;;;;;;;;;4988326;28;1955;-62
2021/04/06 08:45:54;;;;;;;;;;;;;;;;;;4987923;28;864;-63
2021/04/06 08:48:38;;;;;;;;;;;;;;;;;;4988766;28;868;-62
2021/04/06 08:51:15;;;;;;;;;;;;;;;;;;4990577;28;1545;-66
2021/04/06 08:53:41;;;;;;;;;;;;;;;;;;5016435;28;1144;-64
2021/04/06 08:56:13;;;;;;;;;;;;;;;;;;5023709;28;1171;-62
2021/04/06 08:58:39;;;;;;;;;;;;;;;;;;5027251;28;803;-65
2021/04/06 09:01:05;;;;;;;;;;;;;;;;;;5044409;28;951;-61
2021/04/06 09:03:31;;;;;;;;;;;;;;;;;;5040695;28;1969;-61
2021/04/06 09:06:03;;;;;;;;;;;;;;;;;;5038384;28;1187;-61
2021/04/06 09:08:29;;;;;;;;;;;;;;;;;;5024272;28;1368;-61
2021/04/06 09:11:04;;;;;;;;;;;;;;;;;;5026295;28;1088;-66
2021/04/06 09:13:29;;;;;;;;;;;;;;;;;;5027030;28;816;-61
2021/04/06 09:15:55;;;;;;;;;;;;;;;;;;5009816;28;1322;-65
2021/04/06 09:18:20;;;;;;;;;;;;;;;;;;5030152;28;816;-62
2021/04/06 09:20:46;;;;;;;;;;;;;;;;;;5030123;28;827;-61
2021/04/06 09:23:11;;;;;;;;;;;;;;;;;;5030488;28;1984;-61
2021/04/06 09:25:36;;;;;;;;;;;;;;;;;;5030587;28;895;-60
2021/04/06 09:28:05;;;;;;;;;;;;;;;;;;5030371;28;914;-60
2021/04/06 09:30:32;;;;;;;;;;;;;;;;;;5030387;28;866;-61
2021/04/06 09:33:03;;;;;;;;;;;;;;;;;;5030748;28;820;-64
2021/04/06 09:35:28;;;;;;;;;;;;;;;;;;5029869;28;856;-64
2021/04/06 09:37:54;;;;;;;;;;;;;;;;;;5030497;28;1400;-62
2021/04/06 09:40:27;;;;;;;;;;;;;;;;;;5031215;28;843;-65
2021/04/06 09:42:52;;;;;;;;;;;;;;;;;;5031232;28;1906;-64
2021/04/06 09:45:18;;;;;;;;;;;;;;;;;;5030158;28;958;-65
2021/04/06 09:47:43;;;;;;;;;;;;;;;;;;5030285;28;945;-65
2021/04/06 09:50:09;;;;;;;;;;;;;;;;;;5045869;28;950;-65
2021/04/06 09:52:34;;;;;;;;;;;;;;;;;;5029868;28;828;-66
2021/04/06 09:55:04;;;;;;;;;;;;;;;;;;5029834;28;1163;-65
2021/04/06 09:57:33;;;;;;;;;;;;;;;;;;5012006;28;1202;-65
2021/04/06 09:59:59;;;;;;;;;;;;;;;;;;5029576;28;870;-63
2021/04/06 10:02:27;;;;;;;;;;;;;;;;;;5029659;28;835;-65
2021/04/06 10:04:53;;;;;;;;;;;;;;;;;;5030795;28;1991;-66
2021/04/06 10:07:26;;;;;;;;;;;;;;;;;;5029772;28;875;-66
2021/04/06 10:09:53;;;;;;;;;;;;;;;;;;5027445;28;1421;-60
2021/04/06 10:12:19;;;;;;;;;;;;;;;;;;5024204;28;1098;-61
2021/04/06 10:14:45;;;;;;;;;;;;;;;;;;5030076;28;871;-66
2021/04/06 10:17:12;;;;;;;;;;;;;;;;;;5029514;28;868;-65
2021/04/06 10:19:39;;;;;;;;;;;;;;;;;;5037518;28;1148;-64
2021/04/06 10:22:06;;;;;;;;;;;;;;;;;;5039247;28;1036;-64
2021/04/06 10:24:34;;;;;;;;;;;;;;;;;;5037920;28;1971;-62
2021/04/06 10:27:22;;;;;;;;;;;;;;;;;;5039129;28;1052;-65
2021/04/06 10:29:53;;;;;;;;;;;;;;;;;;5030585;28;1252;-64
2021/04/06 10:32:23;;;;;;;;;;;;;;;;;;5037804;28;1345;-63
2021/04/06 10:34:53;;;;;;;;;;;;;;;;;;5030234;28;1069;-64
2021/04/06 10:37:19;;;;;;;;;;;;;;;;;;5039229;28;1076;-64
2021/04/06 10:39:45;;;;;;;;;;;;;;;;;;5040024;28;1211;-65
2021/04/06 10:42:11;;;;;;;;;;;;;;;;;;5040843;28;1262;-66
2021/04/06 10:44:38;;;;;;;;;;;;;;;;;;5048529;28;1945;-64
2021/04/06 10:47:03;;;;;;;;;;;;;;;;;;5049407;28;908;-63
2021/04/06 10:49:29;;;;;;;;;;;;;;;;;;5048509;28;808;-63
2021/04/06 10:51:56;;;;;;;;;;;;;;;;;;5048720;28;1024;-66
2021/04/06 10:54:21;;;;;;;;;;;;;;;;;;5035704;28;1079;-64
2021/04/06 10:56:54;;;;;;;;;;;;;;;;;;5028338;28;934;-65
2021/04/06 10:59:27;;;;;;;;;;;;;;;;;;5029647;28;851;-65
2021/04/06 11:01:52;;;;;;;;;;;;;;;;;;5010175;28;1361;-63
2021/04/06 11:04:25;;;;;;;;;;;;;;;;;;5008708;28;1969;-63
2021/04/06 11:06:56;;;;;;;;;;;;;;;;;;5009298;28;941;-64
2021/04/06 11:09:24;;;;;;;;;;;;;;;;;;5009538;28;737;-63
2021/04/06 11:11:51;;;;;;;;;;;;;;;;;;5011569;28;1752;-61
2021/04/06 11:14:18;;;;;;;;;;;;;;;;;;5022478;28;1175;-63
2021/04/06 11:16:43;;;;;;;;;;;;;;;;;;5019258;28;1164;-63
2021/04/06 11:19:16;;;;;;;;;;;;;;;;;;5022771;28;1206;-64
2021/04/06 11:21:47;;;;;;;;;;;;;;;;;;5017257;28;1155;-62
2021/04/06 11:24:13;;;;;;;;;;;;;;;;;;5006272;28;1977;-64
2021/04/06 11:26:39;;;;;;;;;;;;;;;;;;5007372;28;1195;-62
2021/04/06 11:29:07;;;;;;;;;;;;;;;;;;5007723;28;894;-63
2021/04/06 11:31:33;;;;;;;;;;;;;;;;;;5007695;28;1361;-62
2021/04/06 11:33:58;;;;;;;;;;;;;;;;;;5008018;28;1060;-62
2021/04/06 11:36:24;;;;;;;;;;;;;;;;;;5019915;28;1068;-63
2021/04/06 11:38:50;;;;;;;;;;;;;;;;;;5017035;28;1231;-62
2021/04/06 11:41:19;;;;;;;;;;;;;;;;;;5005743;28;1175;-64
2021/04/06 11:43:45;;;;;;;;;;;;;;;;;;5007644;28;1971;-65
2021/04/06 11:46:11;;;;;;;;;;;;;;;;;;5008403;28;856;-63
2021/04/06 11:48:36;;;;;;;;;;;;;;;;;;5007924;28;804;-64
2021/04/06 11:51:02;;;;;;;;;;;;;;;;;;5007727;28;839;-63
2021/04/06 11:53:27;;;;;;;;;;;;;;;;;;5013979;28;1099;-63
2021/04/06 11:55:52;;;;;;;;;;;;;;;;;;5028538;28;855;-63
2021/04/06 11:58:18;;;;;;;;;;;;;;;;;;5027010;28;985;-64
2021/04/06 12:00:43;;;;;;;;;;;;;;;;;;5011635;28;2381;-63
2021/04/06 12:03:09;;;;;;;;;;;;;;;;;;5007582;28;1971;-63
2021/04/06 12:05:34;;;;;;;;;;;;;;;;;;5022554;28;812;-63
2021/04/06 12:08:00;;;;;;;;;;;;;;;;;;5007397;28;664;-63
2021/04/06 12:10:25;;;;;;;;;;;;;;;;;;5007661;28;820;-64
2021/04/06 12:12:51;;;;;;;;;;;;;;;;;;5022359;28;1100;-63
2021/04/06 12:15:18;;;;;;;;;;;;;;;;;;5027270;28;815;-63
2021/04/06 12:17:43;;;;;;;;;;;;;;;;;;5042626;28;874;-62
2021/04/06 12:20:09;;;;;;;;;;;;;;;;;;5009696;28;908;-62
2021/04/06 12:22:34;;;;;;;;;;;;;;;;;;5027167;28;923;-62
2021/04/06 12:25:00;;;;;;;;;;;;;;;;;;5026644;28;1914;-61
2021/04/06 12:27:26;;;;;;;;;;;;;;;;;;5026892;28;792;-62
2021/04/06 12:29:51;;;;;;;;;;;;;;;;;;5014637;28;2574;-62
2021/04/06 12:32:17;;;;;;;;;;;;;;;;;;5006279;28;899;-61
2021/04/06 12:34:42;;;;;;;;;;;;;;;;;;5021682;28;895;-61
2021/04/06 12:37:08;;;;;;;;;;;;;;;;;;5006658;28;848;-61
2021/04/06 12:39:33;;;;;;;;;;;;;;;;;;5007214;28;847;-61
2021/04/06 12:41:59;;;;;;;;;;;;;;;;;;5007313;28;933;-62
2021/04/06 12:44:24;;;;;;;;;;;;;;;;;;5006948;28;1910;-66
2021/04/06 12:46:50;;;;;;;;;;;;;;;;;;5022573;28;946;-63
2021/04/06 12:49:15;;;;;;;;;;;;;;;;;;5007066;28;931;-65
2021/04/06 12:51:41;;;;;;;;;;;;;;;;;;5009256;28;1541;-63
2021/04/06 12:54:07;;;;;;;;;;;;;;;;;;5021214;28;1033;-63
2021/04/06 12:56:32;;;;;;;;;;;;;;;;;;5021051;28;1083;-63
2021/04/06 12:58:57;;;;;;;;;;;;;;;;;;5021121;28;1306;-63
2021/04/06 13:01:23;;;;;;;;;;;;;;;;;;5048336;28;1453;-62
2021/04/06 13:03:48;;;;;;;;;;;;;;;;;;5044583;28;1979;-63
2021/04/06 13:06:13;;;;;;;;;;;;;;;;;;5050398;28;883;-62
2021/04/06 13:08:39;;;;;;;;;;;;;;;;;;5050390;28;1536;-62
2021/04/06 13:11:04;;;;;;;;;;;;;;;;;;5035640;28;1139;-63
2021/04/06 13:13:29;;;;;;;;;;;;;;;;;;5030146;28;918;-63
2021/04/06 13:15:55;;;;;;;;;;;;;;;;;;5039100;28;1462;-62
2021/04/06 13:18:20;;;;;;;;;;;;;;;;;;5051374;28;926;-63
2021/04/06 13:20:46;;;;;;;;;;;;;;;;;;5050189;28;839;-63
2021/04/06 13:23:12;;;;;;;;;;;;;;;;;;5050026;28;1890;-62
2021/04/06 13:25:37;;;;;;;;;;;;;;;;;;5044251;28;1159;-63
2021/04/06 13:28:03;;;;;;;;;;;;;;;;;;5038509;28;1147;-63
2021/04/06 13:30:28;;;;;;;;;;;;;;;;;;5043820;28;1373;-63
2021/04/06 13:32:54;;;;;;;;;;;;;;;;;;5050239;28;1532;-63
2021/04/06 13:35:20;;;;;;;;;;;;;;;;;;5050441;28;886;-63
2021/04/06 13:37:46;;;;;;;;;;;;;;;;;;5049748;28;902;-62
2021/04/06 13:40:12;;;;;;;;;;;;;;;;;;5049677;28;815;-63
2021/04/06 13:42:38;;;;;;;;;;;;;;;;;;5050272;28;1342;-62
2021/04/06 13:45:06;;;;;;;;;;;;;;;;;;5049676;28;1889;-63
2021/04/06 13:47:31;;;;;;;;;;;;;;;;;;5049856;28;859;-62
2021/04/06 13:49:57;;;;;;;;;;;;;;;;;;5050485;28;823;-63
2021/04/06 13:52:22;;;;;;;;;;;;;;;;;;5050915;28;791;-63
2021/04/06 13:54:48;;;;;;;;;;;;;;;;;;5032167;28;1091;-63
2021/04/06 13:57:13;;;;;;;;;;;;;;;;;;5029686;28;796;-63
2021/04/06 13:59:39;;;;;;;;;;;;;;;;;;5029512;28;1282;-63
2021/04/06 14:02:04;;;;;;;;;;;;;;;;;;5029660;28;926;-63
2021/04/06 14:04:29;;;;;;;;;;;;;;;;;;5028168;28;1907;-63
2021/04/06 14:06:55;;;;;;;;;;;;;;;;;;5037194;28;1529;-63
2021/04/06 14:09:20;;;;;;;;;;;;;;;;;;5022550;28;1473;-63
2021/04/06 14:11:45;;;;;;;;;;;;;;;;;;5028452;28;1182;-62
2021/04/06 14:14:11;;;;;;;;;;;;;;;;;;5028696;28;937;-62
2021/04/06 14:16:36;;;;;;;;;;;;;;;;;;5029035;28;1039;-62
2021/04/06 14:19:02;;;;;;;;;;;;;;;;;;5010315;28;1107;-62
2021/04/06 14:21:27;;;;;;;;;;;;;;;;;;5028649;28;935;-61
2021/04/06 14:23:53;;;;;;;;;;;;;;;;;;5030219;28;1969;-62
2021/04/06 14:26:18;;;;;;;;;;;;;;;;;;5029054;28;891;-62
2021/04/06 14:28:44;;;;;;;;;;;;;;;;;;5028594;28;1175;-61
2021/04/06 14:31:10;;;;;;;;;;;;;;;;;;5028960;28;843;-62
2021/04/06 14:33:35;;;;;;;;;;;;;;;;;;5029094;28;851;-62
2021/04/06 14:36:01;;;;;;;;;;;;;;;;;;5028562;28;799;-62
2021/04/06 14:38:27;;;;;;;;;;;;;;;;;;5028644;28;803;-62
2021/04/06 14:40:52;;;;;;;;;;;;;;;;;;5030244;28;915;-61
2021/04/06 14:43:21;;;;;;;;;;;;;;;;;;5031047;28;1917;-62
2021/04/06 14:45:52;;;;;;;;;;;;;;;;;;5041894;28;1219;-62
2021/04/06 14:48:17;;;;;;;;;;;;;;;;;;5045500;28;1160;-62
2021/04/06 14:50:43;;;;;;;;;;;;;;;;;;5048127;28;803;-62
2021/04/06 14:53:08;;;;;;;;;;;;;;;;;;5044211;28;1150;-62
2021/04/06 14:55:35;;;;;;;;;;;;;;;;;;5027850;28;830;-62
2021/04/06 14:58:01;;;;;;;;;;;;;;;;;;5028105;28;1164;-62
2021/04/06 15:00:27;;;;;;;;;;;;;;;;;;5040497;28;936;-62
2021/04/06 15:02:53;;;;;;;;;;;;;;;;;;5039254;28;1961;-62
2021/04/06 15:05:19;;;;;;;;;;;;;;;;;;5028155;28;1119;-62
2021/04/06 15:07:44;;;;;;;;;;;;;;;;;;5016316;28;1228;-62
2021/04/06 15:10:10;;;;;;;;;;;;;;;;;;5023402;28;1678;-61
2021/04/06 15:12:37;;;;;;;;;;;;;;;;;;5024861;28;1616;-62
2021/04/06 15:15:03;;;;;;;;;;;;;;;;;;5027742;28;1147;-62
2021/04/06 15:17:29;;;;;;;;;;;;;;;;;;5027899;28;867;-62
2021/04/06 15:19:55;;;;;;;;;;;;;;;;;;5028391;28;895;-63
2021/04/06 15:22:21;;;;;;;;;;;;;;;;;;5028658;28;910;-61
2021/04/06 15:24:47;;;;;;;;;;;;;;;;;;5027359;28;1983;-61
2021/04/06 15:27:12;;;;;;;;;;;;;;;;;;5026918;28;989;-61
2021/04/06 15:29:38;;;;;;;;;;;;;;;;;;5027389;28;1408;-61
2021/04/06 15:32:03;;;;;;;;;;;;;;;;;;5027600;28;875;-61
2021/04/06 15:34:29;;;;;;;;;;;;;;;;;;5026935;28;1129;-61
2021/04/06 15:36:55;;;;;;;;;;;;;;;;;;5026975;28;831;-62
2021/04/06 15:39:24;;;;;;;;;;;;;;;;;;5028327;28;847;-62
2021/04/06 15:41:50;;;;;;;;;;;;;;;;;;5028072;28;962;-61
2021/04/06 15:44:16;;;;;;;;;;;;;;;;;;5027196;28;1871;-61
2021/04/06 15:46:41;;;;;;;;;;;;;;;;;;5027407;28;1081;-62
2021/04/06 15:49:08;;;;;;;;;;;;;;;;;;5026971;28;1052;-62
2021/04/06 15:51:36;;;;;;;;;;;;;;;;;;5027318;28;894;-62
2021/04/06 15:54:02;;;;;;;;;;;;;;;;;;5026917;28;1088;-62
2021/04/06 15:56:27;;;;;;;;;;;;;;;;;;5009440;28;1198;-62
2021/04/06 15:58:53;;;;;;;;;;;;;;;;;;5027762;28;1199;-62
2021/04/06 16:01:19;;;;;;;;;;;;;;;;;;5026743;28;804;-61
2021/04/06 16:03:44;;;;;;;;;;;;;;;;;;5027524;28;1901;-62
2021/04/06 16:06:11;;;;;;;;;;;;;;;;;;5054821;28;1763;-62
2021/04/06 16:08:37;;;;;;;;;;;;;;;;;;5047374;28;812;-61
2021/04/06 16:11:02;;;;;;;;;;;;;;;;;;5043220;28;1075;-61
2021/04/06 16:13:28;;;;;;;;;;;;;;;;;;5027313;28;831;-61
2021/04/06 16:15:54;;;;;;;;;;;;;;;;;;5026968;28;915;-62
2021/04/06 16:18:19;;;;;;;;;;;;;;;;;;5021568;28;1834;-62
2021/04/06 16:20:45;;;;;;;;;;;;;;;;;;5016387;28;851;-61
2021/04/06 16:23:11;;;;;;;;;;;;;;;;;;5025010;28;1915;-62
2021/04/06 16:25:37;;;;;;;;;;;;;;;;;;5026622;28;894;-61
2021/04/06 16:28:04;;;;;;;;;;;;;;;;;;5028463;28;1276;-61
2021/04/06 16:30:34;;;;;;;;;;;;;;;;;;5025725;28;1585;-61
2021/04/06 16:33:03;;;;;;;;;;;;;;;;;;5032291;28;1144;-61
2021/04/06 16:35:29;;;;;;;;;;;;;;;;;;5029214;28;1033;-61
2021/04/06 16:37:55;;;;;;;;;;;;;;;;;;5026940;28;863;-61
2021/04/06 16:40:20;;;;;;;;;;;;;;;;;;5026908;28;1174;-61
2021/04/06 16:42:46;;;;;;;;;;;;;;;;;;5031041;28;1157;-61
2021/04/06 16:45:11;;;;;;;;;;;;;;;;;;5035993;28;1894;-61
2021/04/06 16:47:37;;;;;;;;;;;;;;;;;;5036290;28;1400;-61
2021/04/06 16:50:03;;;;;;;;;;;;;;;;;;5036364;28;1218;-61
2021/04/06 16:52:28;;;;;;;;;;;;;;;;;;5038521;28;1139;-62
2021/04/06 16:54:54;;;;;;;;;;;;;;;;;;5029356;28;1047;-61
2021/04/06 16:57:20;;;;;;;;;;;;;;;;;;5008856;28;1277;-61
2021/04/06 16:59:45;;;;;;;;;;;;;;;;;;5026523;28;954;-61
2021/04/06 17:02:11;;;;;;;;;;;;;;;;;;5027284;28;856;-62
2021/04/06 17:04:36;;;;;;;;;;;;;;;;;;5026806;28;1985;-62
2021/04/06 17:07:01;;;;;;;;;;;;;;;;;;5034898;28;1514;-62
2021/04/06 17:09:27;;;;;;;;;;;;;;;;;;5038174;28;1356;-62
2021/04/06 17:11:52;;;;;;;;;;;;;;;;;;5027049;28;1155;-62